Time;durP1;ratioP1;P1;durP2;ratioP2;P2;SDS_P1;SDS_P2;PMS_P1;PMS_P2;Temp;Humidity;BMP_temperature;BMP_pressure;BME280_temperature;BME280_humidity;BME280_pressure;Samples;Min_cycle;Max_cycle;Signal;HPM_P1;HPM_P2
2022/06/12 00:01:31;;;;;;;12.50;5.85;;;;;;;17.93;86.55;98970.18;1633505;86;21003;-81
2022/06/12 00:03:58;;;;;;;9.35;5.70;;;;;;;17.97;86.45;98971.70;1621153;87;21174;-79
2022/06/12 00:06:25;;;;;;;11.83;5.60;;;;;;;18.00;85.58;98963.61;1625035;86;20991;-79
2022/06/12 00:08:52;;;;;;;10.90;6.30;;;;;;;18.00;86.05;98965.77;1665315;85;21048;-78
2022/06/12 00:11:21;;;;;;;10.25;5.78;;;;;;;17.97;85.52;98965.96;1626762;86;21031;-79
2022/06/12 00:13:56;;;;;;;10.75;5.70;;;;;;;17.89;84.90;98973.45;1624821;88;21073;-78
2022/06/12 00:16:23;;;;;;;12.37;6.25;;;;;;;17.86;85.54;98976.23;1628497;88;21062;-79
2022/06/12 00:18:50;;;;;;;13.62;5.97;;;;;;;17.89;86.08;98983.97;1616742;87;21002;-79
2022/06/12 00:21:17;;;;;;;8.05;5.67;;;;;;;17.97;87.13;98976.95;1619362;86;21079;-79
2022/06/12 00:23:54;;;;;;;9.70;6.10;;;;;;;18.04;87.23;98978.28;1624358;87;21074;-78
2022/06/12 00:26:26;;;;;;;7.83;5.40;;;;;;;18.08;87.73;98980.67;1631466;86;21051;-79
2022/06/12 00:29:04;;;;;;;8.95;5.85;;;;;;;18.16;86.95;98974.09;1628949;86;21037;-79
2022/06/12 00:31:34;;;;;;;10.60;6.08;;;;;;;18.21;86.52;98975.52;1620476;86;21112;-79
2022/06/12 00:34:02;;;;;;;12.23;5.70;;;;;;;18.23;86.33;98964.92;1639699;86;20999;-79
2022/06/12 00:36:29;;;;;;;8.58;5.67;;;;;;;18.25;85.98;98969.63;1625361;86;21222;-82
2022/06/12 00:38:56;;;;;;;9.58;5.80;;;;;;;18.27;86.25;98972.53;1639136;86;21078;-80
2022/06/12 00:41:22;;;;;;;10.40;5.47;;;;;;;18.32;86.79;98968.78;1614765;87;20995;-81
2022/06/12 00:43:49;;;;;;;9.48;5.85;;;;;;;18.34;86.13;98975.64;1637386;86;21550;-81
2022/06/12 00:46:46;;;;;;;11.25;5.67;;;;;;;18.37;85.19;98975.47;1623630;86;21055;-78
2022/06/12 00:49:36;;;;;;;11.40;6.33;;;;;;;18.34;85.45;98976.12;1632847;87;21078;-79
2022/06/12 00:52:29;;;;;;;10.40;6.17;;;;;;;18.35;85.27;98973.88;1626112;86;21042;-79
2022/06/12 00:55:24;;;;;;;9.90;6.53;;;;;;;18.33;85.70;98977.07;1631778;87;21142;-78
2022/06/12 00:57:55;;;;;;;8.48;6.10;;;;;;;18.35;86.20;98958.09;1616667;86;21053;-79
2022/06/12 01:00:23;;;;;;;10.32;6.03;;;;;;;18.29;85.13;98961.45;1623800;86;21043;-79
2022/06/12 01:02:50;;;;;;;12.20;6.87;;;;;;;18.26;85.77;98965.59;1635697;87;21038;-79
2022/06/12 01:08:07;;;;;;;11.40;6.40;;;;;;;18.31;86.42;98956.58;1628061;86;21035;-79
2022/06/12 01:10:39;;;;;;;10.25;6.65;;;;;;;18.26;84.73;98951.56;1631034;86;21045;-78
2022/06/12 01:13:17;;;;;;;10.18;6.20;;;;;;;18.22;85.34;98957.95;1627064;86;21102;-80
2022/06/12 01:16:00;;;;;;;11.20;6.60;;;;;;;18.22;86.99;98964.52;1627665;86;21038;-79
2022/06/12 01:18:32;;;;;;;10.78;6.00;;;;;;;18.25;86.68;98961.25;1636987;86;21412;-79
2022/06/12 01:21:44;;;;;;;11.20;6.10;;;;;;;18.29;87.09;98944.82;1605968;87;21082;-79
2022/06/12 01:24:45;;;;;;;9.15;5.78;;;;;;;18.29;86.23;98946.13;1638148;86;21070;-79
2022/06/12 01:27:44;;;;;;;11.03;6.40;;;;;;;18.29;85.68;98948.77;1626546;88;21083;-79
2022/06/12 01:30:22;;;;;;;10.70;7.22;;;;;;;18.30;86.75;98951.76;1636321;86;21022;-80
2022/06/12 01:32:57;;;;;;;9.65;6.92;;;;;;;18.27;86.25;98955.91;1639070;83;21035;-79
2022/06/12 01:36:02;;;;;;;9.78;6.33;;;;;;;18.28;86.67;98956.27;1629646;83;21018;-79
2022/06/12 01:38:39;;;;;;;9.83;6.47;;;;;;;18.31;87.48;98948.69;1607550;88;21536;-78
2022/06/12 01:41:17;;;;;;;10.95;6.55;;;;;;;18.32;87.12;98953.83;1599863;88;21079;-78
2022/06/12 01:43:52;;;;;;;12.07;6.75;;;;;;;18.32;87.06;98947.25;1608089;88;21033;-84
2022/06/12 01:46:27;;;;;;;11.57;6.65;;;;;;;18.35;87.34;98949.72;1595692;89;21071;-79
2022/06/12 01:49:19;;;;;;;12.35;6.80;;;;;;;18.35;86.95;98950.20;1633131;86;21031;-80
2022/06/12 01:52:10;;;;;;;9.73;6.05;;;;;;;18.29;86.51;98952.23;1621416;87;21065;-79
2022/06/12 01:54:53;;;;;;;10.82;5.67;;;;;;;18.23;84.93;98959.18;1631813;86;21137;-80
2022/06/12 01:57:25;;;;;;;11.73;6.75;;;;;;;18.12;85.29;98958.95;1622960;87;21114;-78
2022/06/12 02:00:10;;;;;;;11.83;7.50;;;;;;;18.01;86.64;98958.27;1630665;88;21087;-79
2022/06/12 02:02:59;;;;;;;12.30;6.95;;;;;;;17.92;84.65;98957.48;1623734;87;21014;-79
2022/06/12 02:05:54;;;;;;;13.65;7.62;;;;;;;17.81;85.53;98957.23;1633318;86;21084;-78
2022/06/12 02:08:32;;;;;;;11.53;7.60;;;;;;;17.71;87.78;98963.47;1630556;86;21015;-79
2022/06/12 02:14:09;;;;;;;9.65;6.62;;;;;;;17.64;88.69;98960.80;1635462;86;21091;-81
2022/06/12 02:16:41;;;;;;;11.35;6.85;;;;;;;17.60;89.06;98959.28;1611263;88;21038;-79
2022/06/12 02:19:14;;;;;;;11.45;6.72;;;;;;;17.58;89.04;98962.45;1633029;86;21019;-78
2022/06/12 02:22:00;;;;;;;11.68;6.50;;;;;;;17.55;87.26;98962.62;1617920;87;21038;-79
2022/06/12 02:24:38;;;;;;;16.07;6.42;;;;;;;17.53;87.91;98961.41;1633637;86;21011;-79
2022/06/12 02:27:13;;;;;;;14.25;6.95;;;;;;;17.51;86.83;98958.02;1615476;87;21046;-79
2022/06/12 02:29:51;;;;;;;12.28;7.12;;;;;;;17.52;87.53;98962.80;1630375;88;21104;-80
2022/06/12 02:32:35;;;;;;;10.93;6.67;;;;;;;17.54;88.91;98959.15;1624885;87;21109;-79
2022/06/12 02:35:13;;;;;;;11.57;6.70;;;;;;;17.55;87.06;98969.19;1637755;86;21062;-78
2022/06/12 02:37:45;;;;;;;11.48;7.65;;;;;;;17.54;88.91;98960.47;1623618;87;21042;-79
2022/06/12 02:40:29;;;;;;;12.63;6.67;;;;;;;17.57;88.61;98960.30;1637702;86;21046;-79
2022/06/12 02:43:00;;;;;;;12.88;6.83;;;;;;;17.62;88.12;98963.98;1604073;88;21053;-79
2022/06/12 02:45:34;;;;;;;16.50;6.87;;;;;;;17.59;88.18;98962.86;1625514;87;21151;-84
2022/06/12 02:48:02;;;;;;;17.17;7.33;;;;;;;17.56;88.35;98961.22;1632898;86;21051;-79
2022/06/12 02:50:34;;;;;;;12.75;6.83;;;;;;;17.52;88.25;98961.02;1628335;87;21043;-79
2022/06/12 02:53:21;;;;;;;13.00;7.05;;;;;;;17.50;88.04;98959.78;1632645;86;21011;-81
2022/06/12 02:56:16;;;;;;;11.03;6.95;;;;;;;17.47;88.10;98968.33;1627789;87;21060;-81
2022/06/12 02:59:00;;;;;;;31.20;7.60;;;;;;;17.43;88.21;98963.70;1658656;85;21004;-81
2022/06/12 03:01:44;;;;;;;13.00;7.12;;;;;;;17.44;88.50;98977.68;1639921;86;21063;-81
2022/06/12 03:04:22;;;;;;;14.20;7.70;;;;;;;17.46;89.88;98981.91;1620713;87;21033;-82
2022/06/12 03:06:48;;;;;;;13.78;7.50;;;;;;;17.49;88.22;98978.28;1612014;89;21015;-81
2022/06/12 03:09:15;;;;;;;17.42;8.13;;;;;;;17.49;88.20;98973.03;1662608;85;21019;-82
2022/06/12 03:11:46;;;;;;;17.70;8.60;;;;;;;17.43;87.83;98982.57;1639979;86;21007;-80
2022/06/12 03:14:18;;;;;;;15.78;7.65;;;;;;;17.43;88.68;98980.78;1619666;87;21030;-80
2022/06/12 03:16:45;;;;;;;12.88;7.65;;;;;;;17.49;89.61;98976.97;1607918;88;21152;-79
2022/06/12 03:19:17;;;;;;;10.90;7.08;;;;;;;17.54;89.21;98982.80;1638240;86;21039;-79
2022/06/12 03:22:08;;;;;;;12.37;6.78;;;;;;;17.61;89.67;98985.48;1625512;86;21039;-79
2022/06/12 03:24:55;;;;;;;11.43;6.67;;;;;;;17.67;88.89;98993.03;1620033;87;21102;-78
2022/06/12 03:28:03;;;;;;;10.38;5.92;;;;;;;17.74;88.38;98987.42;1633608;86;21567;-78
2022/06/12 03:30:50;;;;;;;13.18;6.40;;;;;;;17.75;87.68;98993.92;1624410;87;21006;-79
2022/06/12 03:33:34;;;;;;;13.20;6.75;;;;;;;17.75;87.62;98995.23;1654033;86;21015;-79
2022/06/12 03:36:13;;;;;;;;;;;;;;;17.76;87.12;99002.17;1616199;87;21062;-79
2022/06/12 03:38:53;;;;;;;10.90;6.28;;;;;;;17.75;88.07;99000.97;1626174;87;20491;-79
2022/06/12 03:41:35;;;;;;;11.35;6.37;;;;;;;17.75;87.49;99003.59;1609471;87;21057;-79
2022/06/12 03:44:34;;;;;;;11.83;7.35;;;;;;;17.77;87.11;98999.09;1612064;87;21041;-79
2022/06/12 03:47:22;;;;;;;11.63;6.70;;;;;;;17.78;87.83;98994.20;1614299;86;21015;-79
2022/06/12 03:49:55;;;;;;;13.93;7.22;;;;;;;17.88;88.73;98998.03;1627811;87;21037;-78
2022/06/12 03:52:39;;;;;;;10.43;6.87;;;;;;;17.94;88.19;99004.26;1634200;86;21555;-79
2022/06/12 03:58:24;;;;;;;19.57;6.65;;;;;;;18.17;88.93;99003.43;1635213;87;21483;-78
2022/06/12 04:00:52;;;;;;;11.88;6.50;;;;;;;18.29;89.22;99004.03;1618419;87;21090;-78
2022/06/12 04:03:24;;;;;;;16.30;7.10;;;;;;;18.38;88.54;99007.45;1623399;87;21069;-77
2022/06/12 04:06:01;;;;;;;11.93;6.67;;;;;;;18.49;88.74;98997.11;1632245;86;21035;-78
2022/06/12 04:08:39;;;;;;;11.00;6.70;;;;;;;18.61;88.36;98989.44;1622125;87;21106;-80
2022/06/12 04:11:12;;;;;;;12.30;7.12;;;;;;;18.67;87.96;98996.97;1633323;86;21042;-80
2022/06/12 04:13:40;;;;;;;14.18;6.60;;;;;;;18.73;87.12;98999.70;1624986;87;21057;-79
2022/06/12 04:16:28;;;;;;;10.80;6.87;;;;;;;18.68;86.16;98995.56;1633679;86;21027;-79
2022/06/12 04:18:55;;;;;;;11.90;6.58;;;;;;;18.63;85.71;98992.83;1626888;87;22079;-79
2022/06/12 04:21:36;;;;;;;13.50;7.45;;;;;;;18.59;85.01;98994.79;1634729;87;21086;-79
2022/06/12 04:24:23;;;;;;;14.65;7.22;;;;;;;18.55;85.22;98992.44;1619217;87;21101;-78
2022/06/12 04:27:16;;;;;;;12.53;7.97;;;;;;;18.47;85.38;98988.46;1633437;86;21070;-79
2022/06/12 04:30:04;;;;;;;14.03;7.92;;;;;;;18.46;86.69;98986.78;1623443;87;21097;-79
2022/06/12 04:32:31;;;;;;;13.20;7.62;;;;;;;18.51;86.07;98993.08;1629741;86;21047;-78
2022/06/12 04:34:59;;;;;;;17.87;8.85;;;;;;;18.52;85.82;98989.97;1628797;87;21589;-77
2022/06/12 04:37:30;;;;;;;13.48;8.35;;;;;;;18.48;85.23;98991.48;1633931;86;21062;-77
2022/06/12 04:39:59;;;;;;;12.88;8.00;;;;;;;18.47;85.35;98982.36;1610083;87;21037;-78
2022/06/12 04:42:30;;;;;;;11.15;7.42;;;;;;;18.50;85.80;98983.48;1634695;88;21043;-78
2022/06/12 04:45:00;;;;;;;17.92;8.55;;;;;;;18.55;85.91;98991.12;1611436;87;21022;-80
2022/06/12 04:47:27;;;;;;;13.05;7.62;;;;;;;18.55;85.30;98991.12;1633582;86;21011;-77
2022/06/12 04:49:55;;;;;;;14.13;7.80;;;;;;;18.55;85.75;98989.80;1625045;87;21561;-78
2022/06/12 04:52:25;;;;;;;11.78;7.58;;;;;;;18.59;86.20;98992.16;1633823;86;20999;-78
2022/06/12 04:54:53;;;;;;;13.08;6.83;;;;;;;18.68;86.20;99000.83;1618546;87;21611;-78
2022/06/12 04:57:20;;;;;;;12.28;6.20;;;;;;;18.73;86.63;98997.91;1632982;86;21075;-79
2022/06/12 04:59:48;;;;;;;10.60;6.00;;;;;;;18.75;85.76;98998.67;1614325;87;21042;-78
2022/06/12 05:02:15;;;;;;;9.90;5.85;;;;;;;18.73;85.36;99001.02;1630331;86;21531;-78
2022/06/12 05:04:42;;;;;;;8.83;5.97;;;;;;;18.76;85.22;99004.33;1596095;88;21052;-79
2022/06/12 05:07:13;;;;;;;12.55;6.92;;;;;;;18.85;86.41;99010.84;1634621;86;21562;-78
2022/06/12 05:09:40;;;;;;;11.50;6.75;;;;;;;18.95;86.24;99009.81;1613283;87;21054;-77
2022/06/12 05:12:09;;;;;;;14.05;7.95;;;;;;;19.06;86.01;99016.61;1632546;86;21003;-78
2022/06/12 05:14:36;;;;;;;12.47;8.00;;;;;;;19.15;85.55;99013.39;1626856;87;21053;-78
2022/06/12 05:17:11;;;;;;;12.93;7.80;;;;;;;19.21;85.56;99015.64;1628550;86;21035;-78
2022/06/12 05:19:40;;;;;;;13.38;7.08;;;;;;;19.30;85.04;99013.38;1604417;88;21088;-80
2022/06/12 05:22:09;;;;;;;13.50;7.45;;;;;;;19.39;84.46;99012.81;1630297;86;21019;-79
2022/06/12 05:24:37;;;;;;;12.75;7.80;;;;;;;19.50;84.81;99022.22;1628970;87;21362;-79
2022/06/12 05:27:08;;;;;;;12.93;7.78;;;;;;;19.58;84.43;99008.07;1603294;88;21362;-79
2022/06/12 05:29:38;;;;;;;14.93;7.78;;;;;;;19.65;83.65;99017.27;1628762;87;21078;-78
2022/06/12 05:32:08;;;;;;;18.12;9.50;;;;;;;19.70;83.52;99014.36;1624840;86;21084;-78
2022/06/12 05:34:34;;;;;;;14.70;7.90;;;;;;;19.76;82.82;99023.70;1628777;87;21041;-78
2022/06/12 05:37:02;;;;;;;16.75;9.60;;;;;;;19.78;82.45;99025.77;1626634;86;21027;-78
2022/06/12 05:39:28;;;;;;;14.60;7.40;;;;;;;19.84;82.42;99025.37;1596602;88;21042;-79
2022/06/12 05:41:55;;;;;;;13.40;7.90;;;;;;;19.86;81.98;99025.64;1617592;87;21028;-78
2022/06/12 05:44:22;;;;;;;16.77;8.25;;;;;;;19.85;81.91;99019.98;1625421;87;21029;-79
2022/06/12 05:46:49;;;;;;;18.32;8.88;;;;;;;19.87;82.05;99025.16;1627786;86;21050;-78
2022/06/12 05:49:15;;;;;;;15.78;9.28;;;;;;;19.90;82.04;99026.78;1602997;87;21085;-79
2022/06/12 05:51:42;;;;;;;16.10;8.60;;;;;;;19.93;81.79;99027.88;1640813;86;21031;-79
2022/06/12 05:54:11;;;;;;;17.10;10.03;;;;;;;19.98;82.39;99033.72;1604101;87;21121;-79
2022/06/12 05:56:40;;;;;;;19.80;10.03;;;;;;;20.00;82.05;99031.34;1631847;86;21111;-79
2022/06/12 05:59:08;;;;;;;22.87;9.38;;;;;;;20.11;82.42;99034.59;1623023;87;21011;-80
2022/06/12 06:01:37;;;;;;;19.40;9.80;;;;;;;20.18;82.44;99045.61;1617234;87;21079;-78
2022/06/12 06:04:05;;;;;;;18.42;9.00;;;;;;;20.27;82.37;99043.67;1616212;86;21014;-78
2022/06/12 06:06:40;;;;;;;15.13;8.98;;;;;;;20.37;82.34;99040.82;1628923;87;21101;-79
2022/06/12 06:09:08;;;;;;;17.55;10.23;;;;;;;20.51;81.56;99040.35;1614608;87;20976;-78
2022/06/12 06:11:34;;;;;;;19.20;11.68;;;;;;;20.64;81.50;99041.27;1615079;88;20998;-79
2022/06/12 06:14:01;;;;;;;18.30;11.18;;;;;;;20.72;81.36;99046.03;1628540;86;21527;-78
2022/06/12 06:16:28;;;;;;;18.17;11.63;;;;;;;20.86;80.63;99041.97;1629376;88;21071;-79
2022/06/12 06:18:55;;;;;;;21.23;11.10;;;;;;;20.92;80.69;99040.22;1634989;86;20997;-79
2022/06/12 06:21:22;;;;;;;19.45;11.90;;;;;;;21.06;79.59;99038.79;1629382;87;21093;-78
2022/06/12 06:23:49;;;;;;;20.20;10.65;;;;;;;21.07;78.91;99038.34;1631716;86;21037;-77
2022/06/12 06:26:17;;;;;;;15.68;9.03;;;;;;;21.03;78.97;99044.79;1633776;86;21093;-78
2022/06/12 06:28:44;;;;;;;14.58;9.53;;;;;;;21.08;77.85;99043.14;1666925;84;21075;-79
2022/06/12 06:31:11;;;;;;;16.32;8.98;;;;;;;20.97;77.38;99046.05;1639072;86;21047;-79
2022/06/12 06:33:38;;;;;;;21.68;9.20;;;;;;;20.97;77.22;99050.47;1637430;86;21056;-79
2022/06/12 06:36:06;;;;;;;13.25;8.85;;;;;;;20.94;77.41;99048.05;1634925;86;21507;-79
2022/06/12 06:38:32;;;;;;;17.60;10.38;;;;;;;20.96;77.45;99048.31;1637898;86;21077;-78
2022/06/12 06:40:59;;;;;;;13.53;8.03;;;;;;;20.99;78.05;99041.51;1634871;86;21024;-78
2022/06/12 06:43:26;;;;;;;15.03;8.65;;;;;;;21.05;77.59;99045.05;1639090;86;21029;-79
2022/06/12 06:48:38;;;;;;;16.00;9.88;;;;;;;21.18;77.68;99047.67;1639011;86;21041;-78
2022/06/12 06:51:05;;;;;;;14.30;9.20;;;;;;;21.29;77.01;99051.36;1632242;86;21006;-78
2022/06/12 06:53:32;;;;;;;13.15;8.23;;;;;;;21.39;76.62;99045.33;1639364;86;21033;-78
2022/06/12 06:55:59;;;;;;;10.78;7.17;;;;;;;21.46;75.42;99045.77;1633166;87;21035;-79
2022/06/12 06:58:30;;;;;;;12.75;8.03;;;;;;;21.57;75.40;99043.70;1639084;86;21049;-78
2022/06/12 07:00:56;;;;;;;14.23;8.15;;;;;;;21.63;75.21;99044.09;1662159;85;21028;-79
2022/06/12 07:03:24;;;;;;;14.85;7.95;;;;;;;21.76;75.31;99051.14;1620181;87;21034;-78
2022/06/12 07:05:52;;;;;;;14.30;7.83;;;;;;;21.92;74.55;99056.17;1633623;86;21077;-79
2022/06/12 07:08:20;;;;;;;12.68;7.90;;;;;;;21.98;74.50;99055.23;1637435;86;21066;-78
2022/06/12 07:10:49;;;;;;;13.20;7.92;;;;;;;22.08;73.76;99051.44;1635893;86;21573;-78
2022/06/12 07:13:16;;;;;;;17.62;7.40;;;;;;;22.18;73.21;99052.48;1628290;86;21494;-79
2022/06/12 07:15:43;;;;;;;10.18;7.35;;;;;;;22.29;72.36;99053.03;1637161;86;21068;-77
2022/06/12 07:18:11;;;;;;;8.98;6.92;;;;;;;22.40;72.41;99058.84;1639784;87;21625;-78
2022/06/12 07:20:45;;;;;;;10.25;6.90;;;;;;;22.53;71.58;99053.48;1638717;86;21073;-79
2022/06/12 07:23:12;;;;;;;9.98;7.03;;;;;;;22.66;71.71;99059.56;1628407;86;21059;-78
2022/06/12 07:25:43;;;;;;;9.93;6.42;;;;;;;22.71;70.61;99055.23;1637845;86;21105;-78
2022/06/12 07:28:11;;;;;;;9.68;5.75;;;;;;;22.73;70.44;99058.11;1623204;86;21566;-78
2022/06/12 07:30:39;;;;;;;8.68;5.90;;;;;;;22.77;70.05;99059.56;1624842;87;21053;-78
2022/06/12 07:33:07;;;;;;;10.38;6.67;;;;;;;22.89;70.45;99063.58;1625161;86;21109;-79
2022/06/12 07:35:36;;;;;;;10.18;6.25;;;;;;;22.93;69.73;99059.23;1624860;87;21030;-79
2022/06/12 07:38:03;;;;;;;9.35;6.25;;;;;;;22.95;69.50;99059.12;1597429;88;21019;-79
2022/06/12 07:40:35;;;;;;;9.48;6.28;;;;;;;22.96;69.59;99064.78;1624488;87;21049;-79
2022/06/12 07:43:03;;;;;;;9.40;6.00;;;;;;;23.03;69.72;99060.25;1628813;86;21058;-79
2022/06/12 07:45:30;;;;;;;12.82;5.72;;;;;;;23.07;69.18;99060.86;1624873;87;21602;-77
2022/06/12 07:47:58;;;;;;;9.48;6.00;;;;;;;23.12;68.55;99062.69;1633705;86;20984;-79
2022/06/12 07:50:25;;;;;;;9.93;6.00;;;;;;;23.16;68.96;99056.18;1624791;87;21574;-79
2022/06/12 07:52:51;;;;;;;12.70;6.22;;;;;;;23.22;68.86;99057.02;1632912;86;21010;-78
2022/06/12 07:55:20;;;;;;;7.90;5.28;;;;;;;23.31;68.79;99063.89;1606488;88;21618;-79
2022/06/12 07:57:47;;;;;;;10.03;5.75;;;;;;;23.38;68.38;99060.64;1608622;88;21070;-79
2022/06/12 08:00:15;;;;;;;7.80;5.42;;;;;;;23.52;67.61;99056.91;1608434;88;21042;-78
2022/06/12 08:02:44;;;;;;;9.48;5.37;;;;;;;23.55;67.92;99057.97;1608978;89;21027;-78
2022/06/12 08:05:13;;;;;;;8.95;4.78;;;;;;;23.69;68.18;99055.54;1603851;88;21511;-79
2022/06/12 08:07:40;;;;;;;8.65;4.97;;;;;;;23.86;68.22;99068.83;1624208;87;21097;-79
2022/06/12 08:10:08;;;;;;;7.40;4.85;;;;;;;24.02;68.13;99061.30;1630616;86;21102;-79
2022/06/12 08:12:37;;;;;;;8.85;5.03;;;;;;;24.24;67.77;99059.55;1606374;88;21483;-79
2022/06/12 08:15:09;;;;;;;7.40;4.72;;;;;;;24.33;65.52;99061.92;1621338;87;21033;-79
2022/06/12 08:17:36;;;;;;;6.60;4.70;;;;;;;24.35;63.81;99062.17;1633891;86;20999;-79
2022/06/12 08:23:26;;;;;;;5.87;3.95;;;;;;;24.40;63.69;99063.95;1635434;86;21039;-79
2022/06/12 08:25:38;;;;;;;8.48;4.87;;;;;;;24.55;63.54;99057.89;1653060;85;21563;-78
2022/06/12 08:28:05;;;;;;;7.53;4.87;;;;;;;24.65;63.25;99061.95;1665028;85;21528;-79
2022/06/12 08:30:32;;;;;;;6.33;4.30;;;;;;;24.74;62.91;99055.84;1649360;86;21012;-79
2022/06/12 08:32:59;;;;;;;9.55;4.60;;;;;;;24.90;62.82;99062.52;1636873;86;21644;-78
2022/06/12 08:35:31;;;;;;;8.33;4.58;;;;;;;25.06;63.27;99060.23;1648263;85;21035;-79
2022/06/12 08:37:58;;;;;;;6.00;4.10;;;;;;;25.28;63.29;99071.22;1630513;86;21021;-78
2022/06/12 08:40:54;;;;;;;8.45;4.12;;;;;;;25.49;61.69;99063.20;1649813;85;21032;-79
2022/06/12 08:43:35;;;;;;;6.97;4.00;;;;;;;25.66;59.53;99060.87;1632996;86;21533;-79
2022/06/12 08:46:10;;;;;;;5.95;3.85;;;;;;;25.79;59.68;99065.47;1650589;86;21127;-79
2022/06/12 08:49:03;;;;;;;6.35;3.70;;;;;;;25.77;58.92;99060.27;1639058;86;21038;-79
2022/06/12 08:51:33;;;;;;;;;;;;;;;25.81;58.40;99062.18;1644990;85;21056;-79
2022/06/12 08:54:21;;;;;;;6.10;4.12;;;;;;;25.84;58.17;99055.23;1651039;85;20170;-78
2022/06/12 08:57:05;;;;;;;6.45;3.52;;;;;;;25.92;57.36;99054.58;1631145;86;21337;-79
2022/06/12 08:59:43;;;;;;;7.35;3.98;;;;;;;25.95;58.22;99056.48;1626554;86;21061;-79
2022/06/12 09:02:25;;;;;;;6.75;3.95;;;;;;;26.04;57.19;99056.14;1650274;85;21047;-79
2022/06/12 09:05:03;;;;;;;7.05;3.77;;;;;;;25.97;56.67;99043.88;1639004;86;21057;-79
2022/06/12 09:08:07;;;;;;;5.83;4.20;;;;;;;26.06;57.80;99043.52;1643872;85;21039;-79
2022/06/12 09:10:51;;;;;;;5.15;3.50;;;;;;;26.11;57.43;99035.97;1632630;86;21068;-79
2022/06/12 09:13:31;;;;;;;7.42;3.72;;;;;;;26.22;57.34;99040.31;1643631;85;20988;-79
2022/06/12 09:16:13;;;;;;;4.80;3.65;;;;;;;26.32;56.21;99042.51;1632407;86;21061;-78
2022/06/12 09:19:05;;;;;;;5.40;3.42;;;;;;;26.41;56.46;99041.31;1644078;85;21144;-77
2022/06/12 09:21:55;;;;;;;5.92;3.98;;;;;;;26.45;55.78;99042.71;1622667;86;21061;-79
2022/06/12 09:24:30;;;;;;;6.60;3.60;;;;;;;26.39;54.51;99036.12;1631748;86;21065;-79
2022/06/12 09:27:20;;;;;;;8.10;3.67;;;;;;;26.38;55.27;99037.95;1651059;85;21537;-79
2022/06/12 09:30:04;;;;;;;7.83;3.55;;;;;;;26.43;54.76;99039.34;1617540;87;21072;-79
2022/06/12 09:32:42;;;;;;;6.03;4.30;;;;;;;26.36;53.10;99040.38;1636394;86;21124;-79
2022/06/12 09:35:40;;;;;;;5.95;4.03;;;;;;;26.17;52.86;99047.89;1643633;85;21047;-79
2022/06/12 09:38:26;;;;;;;6.78;3.90;;;;;;;26.04;52.43;99044.66;1635399;86;21581;-78
2022/06/12 09:41:23;;;;;;;7.83;4.08;;;;;;;25.88;52.65;99043.33;1639708;85;21075;-78
2022/06/12 09:44:01;;;;;;;5.78;3.90;;;;;;;25.67;52.21;99046.59;1633801;86;21056;-77
2022/06/12 09:47:02;;;;;;;5.90;3.80;;;;;;;25.52;52.70;99041.63;1650687;85;21103;-77
2022/06/12 09:49:41;;;;;;;4.90;3.47;;;;;;;25.40;54.39;99044.04;1556197;90;21104;-76
2022/06/12 09:52:20;;;;;;;6.65;3.47;;;;;;;25.28;54.18;99049.11;1635667;86;21097;-77
2022/06/12 09:55:11;;;;;;;4.75;3.50;;;;;;;25.15;53.40;99053.30;1644466;85;21111;-78
2022/06/12 09:58:12;;;;;;;6.60;3.80;;;;;;;25.08;53.04;99040.99;1622344;87;21080;-78
2022/06/12 10:00:58;;;;;;;6.40;4.15;;;;;;;25.01;53.98;99037.20;1628492;86;21061;-78
2022/06/12 10:03:39;;;;;;;8.03;4.78;;;;;;;25.07;54.02;99032.67;1651871;85;21004;-78
2022/06/12 10:06:33;;;;;;;5.72;4.08;;;;;;;25.22;54.82;99028.36;1637390;86;21061;-78
2022/06/12 10:09:07;;;;;;;5.15;3.37;;;;;;;25.44;54.50;99020.17;1628224;86;21562;-78
2022/06/12 10:11:46;;;;;;;5.33;3.67;;;;;;;25.64;53.35;99022.89;1602810;86;21895;-78
2022/06/12 10:14:31;;;;;;;8.38;4.25;;;;;;;25.73;53.15;99019.42;1651786;85;21063;-78
2022/06/12 10:17:20;;;;;;;5.15;3.47;;;;;;;25.94;53.90;99012.67;1633207;86;21041;-79
2022/06/12 10:20:07;;;;;;;5.83;3.65;;;;;;;26.29;53.53;99009.47;1633264;85;21071;-78
2022/06/12 10:22:45;;;;;;;5.60;3.60;;;;;;;26.58;51.43;99004.15;1634517;86;21049;-79
2022/06/12 10:25:32;;;;;;;7.35;3.40;;;;;;;26.73;49.14;98995.19;1650220;86;21080;-78
2022/06/12 10:28:06;;;;;;;7.80;3.27;;;;;;;26.78;49.20;98990.28;1624872;87;21024;-78
2022/06/12 10:30:41;;;;;;;7.80;3.40;;;;;;;26.90;49.56;98990.95;1635194;86;21124;-78
2022/06/12 10:33:30;;;;;;;6.45;3.35;;;;;;;26.96;50.26;98982.86;1646681;85;21024;-79
2022/06/12 10:36:00;;;;;;;5.47;3.37;;;;;;;27.11;49.31;98992.05;1635624;86;22112;-78
2022/06/12 10:38:33;;;;;;;7.28;3.50;;;;;;;27.22;50.10;98977.70;1647290;85;21080;-79
2022/06/12 10:41:04;;;;;;;9.05;3.80;;;;;;;27.32;49.40;98979.02;1636896;86;21029;-78
2022/06/12 10:43:38;;;;;;;7.62;3.10;;;;;;;27.50;49.53;98979.89;1630432;85;21082;-78
2022/06/12 10:46:18;;;;;;;4.58;3.33;;;;;;;27.64;47.73;98977.20;1637884;86;21057;-78
2022/06/12 10:48:56;;;;;;;4.70;2.90;;;;;;;27.69;46.29;98976.23;1646942;85;21005;-78
2022/06/12 10:51:31;;;;;;;4.30;2.80;;;;;;;27.52;47.10;98973.91;1626376;86;21038;-78
2022/06/12 10:54:04;;;;;;;7.67;3.15;;;;;;;27.53;46.70;98975.56;1642631;85;21059;-79
2022/06/12 10:56:36;;;;;;;4.33;3.00;;;;;;;27.63;47.34;98966.67;1627181;86;21084;-79
2022/06/12 10:59:18;;;;;;;7.15;3.55;;;;;;;27.63;46.10;98970.67;1638327;87;21702;-78
2022/06/12 11:02:12;;;;;;;4.78;3.33;;;;;;;27.57;46.02;98963.63;1624159;86;21596;-78
2022/06/12 11:04:50;;;;;;;4.70;3.22;;;;;;;27.68;46.36;98947.88;1608461;87;21068;-78
2022/06/12 11:07:37;;;;;;;5.35;3.50;;;;;;;27.80;45.55;98949.83;1623626;87;21060;-78
2022/06/12 11:10:41;;;;;;;5.90;3.30;;;;;;;27.81;44.06;98947.98;1634197;87;21041;-79
2022/06/12 11:13:34;;;;;;;8.98;3.10;;;;;;;27.86;45.48;98943.04;1643517;86;21007;-78
2022/06/12 11:16:21;;;;;;;5.28;3.17;;;;;;;28.00;45.72;98942.52;1635210;87;21038;-77
2022/06/12 11:19:21;;;;;;;4.22;2.80;;;;;;;28.16;45.25;98947.17;1647124;84;21020;-78
2022/06/12 11:22:11;;;;;;;8.15;3.40;;;;;;;28.40;45.36;98948.35;1655334;85;21056;-79
2022/06/12 11:25:19;;;;;;;8.15;4.50;;;;;;;28.47;44.95;98944.04;1659490;85;21075;-78
2022/06/12 11:28:05;;;;;;;6.42;3.40;;;;;;;28.56;43.02;98948.48;1661238;84;21056;-78
2022/06/12 11:30:38;;;;;;;4.72;3.15;;;;;;;28.53;42.82;98940.77;1657875;85;21075;-79
2022/06/12 11:33:27;;;;;;;;;;;;;;;28.58;43.34;98934.97;1668379;84;21095;-78
2022/06/12 11:36:28;;;;;;;4.97;3.20;;;;;;;28.64;41.79;98929.81;1655487;85;20131;-79
2022/06/12 11:39:17;;;;;;;7.15;4.03;;;;;;;28.73;42.39;98928.88;1631879;87;21083;-79
2022/06/12 11:41:49;;;;;;;5.08;3.20;;;;;;;28.79;42.02;98922.53;1618169;87;21032;-77
2022/06/12 11:44:45;;;;;;;5.87;3.27;;;;;;;28.92;42.50;98909.56;1648962;87;21059;-78
2022/06/12 11:47:29;;;;;;;6.03;3.17;;;;;;;29.08;42.33;98916.31;1637404;86;21071;-79
2022/06/12 11:50:18;;;;;;;4.92;3.33;;;;;;;29.26;41.95;98918.08;1658284;85;21035;-78
2022/06/12 11:53:15;;;;;;;6.40;2.83;;;;;;;29.45;41.89;98916.47;1651910;86;21092;-78
2022/06/12 11:55:47;;;;;;;4.72;2.72;;;;;;;29.47;39.25;98905.60;1634090;86;21104;-78
2022/06/12 11:58:24;;;;;;;4.67;3.12;;;;;;;29.69;40.47;98902.27;1648051;85;21019;-78
2022/06/12 12:01:20;;;;;;;6.15;3.60;;;;;;;29.82;40.46;98900.97;1634713;86;21092;-78
2022/06/12 12:04:24;;;;;;;5.20;3.42;;;;;;;30.06;40.73;98900.13;1649907;85;21060;-79
2022/06/12 12:07:03;;;;;;;5.53;3.50;;;;;;;30.23;39.56;98900.46;1626619;86;21065;-78
2022/06/12 12:10:03;;;;;;;4.90;3.20;;;;;;;30.17;39.24;98901.65;1633874;85;21026;-77
2022/06/12 12:12:38;;;;;;;4.87;3.17;;;;;;;30.16;40.62;98913.37;1628571;86;21045;-78
2022/06/12 12:15:18;;;;;;;4.87;3.25;;;;;;;29.77;41.96;98912.20;1651103;85;21044;-78
2022/06/12 12:17:47;;;;;;;6.45;3.27;;;;;;;29.47;42.68;98919.82;1627577;86;21037;-78
2022/06/12 12:20:33;;;;;;;6.95;3.25;;;;;;;29.15;43.14;98917.39;1651823;85;21016;-77
2022/06/12 12:23:05;;;;;;;4.20;2.87;;;;;;;28.78;43.44;98919.53;1631316;86;21017;-77
2022/06/12 12:25:51;;;;;;;4.53;3.08;;;;;;;28.68;43.01;98916.46;1651921;86;21028;-79
2022/06/12 12:28:47;;;;;;;4.62;3.30;;;;;;;28.57;43.51;98914.08;1623552;86;21098;-77